sensor_id;sensor_type;location;lat;lon;timestamp;pressure;altitude;pressure_sealevel;temperature
48362;BMP280;34510;51.888;5.670;2023-06-14T00:04:53;101498.19;;;19.60
48362;BMP280;34510;51.888;5.670;2023-06-14T00:09:55;101502.69;;;19.38
48362;BMP280;34510;51.888;5.670;2023-06-14T00:14:57;101497.66;;;19.40
48362;BMP280;34510;51.888;5.670;2023-06-14T00:20:03;101488.63;;;19.26
48362;BMP280;34510;51.888;5.670;2023-06-14T00:25:09;101493.63;;;19.12
48362;BMP280;34510;51.888;5.670;2023-06-14T00:30:30;101496.31;;;19.07
48362;BMP280;34510;51.888;5.670;2023-06-14T00:35:33;101492.78;;;19.00
48362;BMP280;34510;51.888;5.670;2023-06-14T00:40:35;101498.75;;;18.92
48362;BMP280;34510;51.888;5.670;2023-06-14T00:45:37;101501.91;;;18.84
48362;BMP280;34510;51.888;5.670;2023-06-14T00:50:39;101501.75;;;18.79
48362;BMP280;34510;51.888;5.670;2023-06-14T00:55:47;101502.13;;;18.71
48362;BMP280;34510;51.888;5.670;2023-06-14T01:00:51;101489.28;;;18.63
48362;BMP280;34510;51.888;5.670;2023-06-14T01:06:11;101494.03;;;18.62
48362;BMP280;34510;51.888;5.670;2023-06-14T01:11:26;101505.44;;;18.49
48362;BMP280;34510;51.888;5.670;2023-06-14T01:16:31;101493.84;;;18.46
48362;BMP280;34510;51.888;5.670;2023-06-14T01:21:35;101499.69;;;18.44
48362;BMP280;34510;51.888;5.670;2023-06-14T01:26:44;101493.34;;;18.49
48362;BMP280;34510;51.888;5.670;2023-06-14T01:31:56;101496.88;;;18.44
48362;BMP280;34510;51.888;5.670;2023-06-14T01:37:06;101502.22;;;18.34
48362;BMP280;34510;51.888;5.670;2023-06-14T01:42:11;101496.81;;;18.21
48362;BMP280;34510;51.888;5.670;2023-06-14T01:47:15;101500.22;;;18.23
48362;BMP280;34510;51.888;5.670;2023-06-14T01:52:18;101496.47;;;18.11
48362;BMP280;34510;51.888;5.670;2023-06-14T01:57:23;101495.88;;;18.09
48362;BMP280;34510;51.888;5.670;2023-06-14T02:02:26;101497.44;;;18.04
48362;BMP280;34510;51.888;5.670;2023-06-14T02:07:28;101486.63;;;18.20
48362;BMP280;34510;51.888;5.670;2023-06-14T02:12:34;101485.41;;;18.16
48362;BMP280;34510;51.888;5.670;2023-06-14T02:17:36;101486.81;;;18.06
48362;BMP280;34510;51.888;5.670;2023-06-14T02:22:41;101485.22;;;17.99
48362;BMP280;34510;51.888;5.670;2023-06-14T02:27:43;101496.06;;;17.95
48362;BMP280;34510;51.888;5.670;2023-06-14T02:32:45;101493.38;;;18.00
48362;BMP280;34510;51.888;5.670;2023-06-14T02:37:47;101496.06;;;17.95
48362;BMP280;34510;51.888;5.670;2023-06-14T02:42:50;101504.09;;;17.92
48362;BMP280;34510;51.888;5.670;2023-06-14T02:47:55;101495.31;;;17.70
48362;BMP280;34510;51.888;5.670;2023-06-14T02:52:59;101503.09;;;17.68
48362;BMP280;34510;51.888;5.670;2023-06-14T02:58:08;101511.94;;;17.65
48362;BMP280;34510;51.888;5.670;2023-06-14T03:03:11;101516.94;;;17.63
48362;BMP280;34510;51.888;5.670;2023-06-14T03:08:24;101503.25;;;17.73
48362;BMP280;34510;51.888;5.670;2023-06-14T03:13:30;101521.56;;;17.51
48362;BMP280;34510;51.888;5.670;2023-06-14T03:18:34;101522.50;;;17.44
48362;BMP280;34510;51.888;5.670;2023-06-14T03:23:52;101529.84;;;17.64
48362;BMP280;34510;51.888;5.670;2023-06-14T03:28:55;101532.28;;;17.35
48362;BMP280;34510;51.888;5.670;2023-06-14T03:33:58;101536.25;;;17.28
48362;BMP280;34510;51.888;5.670;2023-06-14T03:39:01;101543.03;;;17.38
48362;BMP280;34510;51.888;5.670;2023-06-14T03:44:04;101533.38;;;17.34
48362;BMP280;34510;51.888;5.670;2023-06-14T03:49:06;101540.06;;;17.33
48362;BMP280;34510;51.888;5.670;2023-06-14T03:54:08;101549.13;;;17.35
48362;BMP280;34510;51.888;5.670;2023-06-14T03:59:13;101558.47;;;17.48
48362;BMP280;34510;51.888;5.670;2023-06-14T04:04:15;101552.28;;;17.64
48362;BMP280;34510;51.888;5.670;2023-06-14T04:09:18;101552.81;;;17.54
48362;BMP280;34510;51.888;5.670;2023-06-14T04:14:21;101559.50;;;17.78
48362;BMP280;34510;51.888;5.670;2023-06-14T04:19:23;101570.63;;;17.66
48362;BMP280;34510;51.888;5.670;2023-06-14T04:24:25;101572.66;;;17.96
48362;BMP280;34510;51.888;5.670;2023-06-14T04:29:35;101578.81;;;17.86
48362;BMP280;34510;51.888;5.670;2023-06-14T04:34:42;101575.41;;;17.84
48362;BMP280;34510;51.888;5.670;2023-06-14T04:39:48;101580.84;;;17.97
48362;BMP280;34510;51.888;5.670;2023-06-14T04:45:01;101580.38;;;18.00
48362;BMP280;34510;51.888;5.670;2023-06-14T04:50:04;101584.84;;;18.26
48362;BMP280;34510;51.888;5.670;2023-06-14T04:55:09;101588.75;;;18.55
48362;BMP280;34510;51.888;5.670;2023-06-14T05:00:13;101593.59;;;18.48
48362;BMP280;34510;51.888;5.670;2023-06-14T05:05:17;101593.81;;;18.65
48362;BMP280;34510;51.888;5.670;2023-06-14T05:10:20;101597.06;;;18.80
48362;BMP280;34510;51.888;5.670;2023-06-14T05:15:22;101600.44;;;18.71
48362;BMP280;34510;51.888;5.670;2023-06-14T05:20:27;101608.50;;;18.97
48362;BMP280;34510;51.888;5.670;2023-06-14T05:25:30;101614.03;;;19.15
48362;BMP280;34510;51.888;5.670;2023-06-14T05:30:32;101617.22;;;19.19
48362;BMP280;34510;51.888;5.670;2023-06-14T05:35:35;101615.63;;;19.23
48362;BMP280;34510;51.888;5.670;2023-06-14T05:40:37;101615.78;;;19.40
48362;BMP280;34510;51.888;5.670;2023-06-14T05:45:39;101611.22;;;19.69
48362;BMP280;34510;51.888;5.670;2023-06-14T05:50:42;101625.13;;;19.52
48362;BMP280;34510;51.888;5.670;2023-06-14T05:55:45;101628.81;;;19.76
48362;BMP280;34510;51.888;5.670;2023-06-14T06:00:47;101627.13;;;19.75
48362;BMP280;34510;51.888;5.670;2023-06-14T06:05:49;101635.28;;;20.00
48362;BMP280;34510;51.888;5.670;2023-06-14T06:10:51;101632.38;;;19.71
48362;BMP280;34510;51.888;5.670;2023-06-14T06:15:53;101637.63;;;19.91
48362;BMP280;34510;51.888;5.670;2023-06-14T06:20:55;101641.66;;;20.07
48362;BMP280;34510;51.888;5.670;2023-06-14T06:25:57;101638.22;;;20.16
48362;BMP280;34510;51.888;5.670;2023-06-14T06:30:59;101648.94;;;20.54
48362;BMP280;34510;51.888;5.670;2023-06-14T06:36:05;101646.59;;;20.63
48362;BMP280;34510;51.888;5.670;2023-06-14T06:41:07;101654.06;;;20.57
48362;BMP280;34510;51.888;5.670;2023-06-14T06:46:09;101652.22;;;21.65
48362;BMP280;34510;51.888;5.670;2023-06-14T06:51:14;101667.69;;;21.46
48362;BMP280;34510;51.888;5.670;2023-06-14T06:56:16;101670.59;;;21.51
48362;BMP280;34510;51.888;5.670;2023-06-14T07:01:33;101677.31;;;22.00
48362;BMP280;34510;51.888;5.670;2023-06-14T07:06:35;101671.47;;;22.40
48362;BMP280;34510;51.888;5.670;2023-06-14T07:11:38;101675.19;;;21.91
48362;BMP280;34510;51.888;5.670;2023-06-14T07:16:41;101673.16;;;22.80
48362;BMP280;34510;51.888;5.670;2023-06-14T07:21:52;101672.97;;;22.26
48362;BMP280;34510;51.888;5.670;2023-06-14T07:26:55;101678.63;;;22.48
48362;BMP280;34510;51.888;5.670;2023-06-14T07:31:58;101683.75;;;22.29
48362;BMP280;34510;51.888;5.670;2023-06-14T07:37:00;101687.59;;;23.32
48362;BMP280;34510;51.888;5.670;2023-06-14T07:42:02;101689.94;;;23.14
48362;BMP280;34510;51.888;5.670;2023-06-14T07:47:04;101690.09;;;23.02
48362;BMP280;34510;51.888;5.670;2023-06-14T07:52:06;101685.16;;;23.41
48362;BMP280;34510;51.888;5.670;2023-06-14T07:57:09;101679.88;;;23.82
48362;BMP280;34510;51.888;5.670;2023-06-14T08:02:11;101688.88;;;24.11
48362;BMP280;34510;51.888;5.670;2023-06-14T08:07:14;101682.22;;;23.58
48362;BMP280;34510;51.888;5.670;2023-06-14T08:12:16;101695.69;;;23.78
48362;BMP280;34510;51.888;5.670;2023-06-14T08:17:18;101689.34;;;24.34
48362;BMP280;34510;51.888;5.670;2023-06-14T08:22:21;101688.50;;;24.34
48362;BMP280;34510;51.888;5.670;2023-06-14T08:27:23;101692.97;;;23.93
48362;BMP280;34510;51.888;5.670;2023-06-14T08:32:29;101679.91;;;24.24
48362;BMP280;34510;51.888;5.670;2023-06-14T08:37:32;101690.03;;;24.62
48362;BMP280;34510;51.888;5.670;2023-06-14T08:42:36;101685.72;;;25.02
48362;BMP280;34510;51.888;5.670;2023-06-14T08:47:40;101682.38;;;24.62
48362;BMP280;34510;51.888;5.670;2023-06-14T08:52:45;101690.72;;;24.79
48362;BMP280;34510;51.888;5.670;2023-06-14T08:57:54;101689.72;;;25.11
48362;BMP280;34510;51.888;5.670;2023-06-14T09:02:56;101681.22;;;25.21
48362;BMP280;34510;51.888;5.670;2023-06-14T09:08:01;101684.63;;;25.28
48362;BMP280;34510;51.888;5.670;2023-06-14T09:13:07;101680.19;;;25.78
48362;BMP280;34510;51.888;5.670;2023-06-14T09:18:09;101693.72;;;25.30
48362;BMP280;34510;51.888;5.670;2023-06-14T09:23:11;101692.06;;;25.44
48362;BMP280;34510;51.888;5.670;2023-06-14T09:28:15;101694.34;;;25.52
48362;BMP280;34510;51.888;5.670;2023-06-14T09:33:23;101689.56;;;26.04
48362;BMP280;34510;51.888;5.670;2023-06-14T09:38:26;101696.94;;;26.05
48362;BMP280;34510;51.888;5.670;2023-06-14T09:43:28;101696.84;;;25.34
48362;BMP280;34510;51.888;5.670;2023-06-14T09:48:31;101681.88;;;26.09
48362;BMP280;34510;51.888;5.670;2023-06-14T09:53:36;101684.72;;;26.09
48362;BMP280;34510;51.888;5.670;2023-06-14T09:58:41;101701.16;;;25.56
48362;BMP280;34510;51.888;5.670;2023-06-14T10:03:47;101682.72;;;26.20
48362;BMP280;34510;51.888;5.670;2023-06-14T10:08:59;101677.84;;;26.31
48362;BMP280;34510;51.888;5.670;2023-06-14T10:14:03;101671.66;;;25.83
48362;BMP280;34510;51.888;5.670;2023-06-14T10:19:33;101687.00;;;26.02
48362;BMP280;34510;51.888;5.670;2023-06-14T10:24:57;101683.56;;;26.20
48362;BMP280;34510;51.888;5.670;2023-06-14T10:35:05;101681.81;;;26.30
48362;BMP280;34510;51.888;5.670;2023-06-14T10:40:30;101683.25;;;26.27
48362;BMP280;34510;51.888;5.670;2023-06-14T10:45:33;101675.03;;;26.15
48362;BMP280;34510;51.888;5.670;2023-06-14T10:50:35;101672.47;;;26.34
48362;BMP280;34510;51.888;5.670;2023-06-14T10:55:38;101669.91;;;26.22
48362;BMP280;34510;51.888;5.670;2023-06-14T11:00:45;101671.06;;;26.06
48362;BMP280;34510;51.888;5.670;2023-06-14T11:05:53;101662.78;;;26.35
48362;BMP280;34510;51.888;5.670;2023-06-14T11:10:59;101673.06;;;26.06
48362;BMP280;34510;51.888;5.670;2023-06-14T11:16:02;101664.66;;;26.70
48362;BMP280;34510;51.888;5.670;2023-06-14T11:21:17;101669.28;;;26.46
48362;BMP280;34510;51.888;5.670;2023-06-14T11:26:25;101660.41;;;26.68
48362;BMP280;34510;51.888;5.670;2023-06-14T11:31:28;101665.34;;;26.27
48362;BMP280;34510;51.888;5.670;2023-06-14T11:36:33;101662.13;;;26.59
48362;BMP280;34510;51.888;5.670;2023-06-14T11:41:41;101661.88;;;26.55
48362;BMP280;34510;51.888;5.670;2023-06-14T11:46:52;101677.19;;;26.74
48362;BMP280;34510;51.888;5.670;2023-06-14T11:51:54;101665.06;;;26.23
48362;BMP280;34510;51.888;5.670;2023-06-14T11:56:56;101670.44;;;26.40
48362;BMP280;34510;51.888;5.670;2023-06-14T12:01:58;101661.34;;;26.43
48362;BMP280;34510;51.888;5.670;2023-06-14T12:07:15;101674.09;;;26.56
48362;BMP280;34510;51.888;5.670;2023-06-14T12:12:21;101661.09;;;26.34
48362;BMP280;34510;51.888;5.670;2023-06-14T12:17:23;101668.22;;;25.96
48362;BMP280;34510;51.888;5.670;2023-06-14T12:22:27;101671.63;;;26.18
48362;BMP280;34510;51.888;5.670;2023-06-14T12:27:31;101669.47;;;26.80
48362;BMP280;34510;51.888;5.670;2023-06-14T12:32:48;101659.41;;;27.03
48362;BMP280;34510;51.888;5.670;2023-06-14T12:37:50;101676.78;;;25.76
48362;BMP280;34510;51.888;5.670;2023-06-14T12:42:55;101668.25;;;26.06
48362;BMP280;34510;51.888;5.670;2023-06-14T12:47:59;101680.16;;;26.08
48362;BMP280;34510;51.888;5.670;2023-06-14T12:53:04;101681.03;;;25.78
48362;BMP280;34510;51.888;5.670;2023-06-14T12:58:14;101655.16;;;25.95
48362;BMP280;34510;51.888;5.670;2023-06-14T13:03:22;101666.38;;;26.61
48362;BMP280;34510;51.888;5.670;2023-06-14T13:08:38;101673.84;;;26.42
48362;BMP280;34510;51.888;5.670;2023-06-14T13:13:40;101676.69;;;26.32
48362;BMP280;34510;51.888;5.670;2023-06-14T13:18:42;101664.63;;;26.80
48362;BMP280;34510;51.888;5.670;2023-06-14T13:23:45;101686.38;;;26.26
48362;BMP280;34510;51.888;5.670;2023-06-14T13:28:46;101677.06;;;26.05
48362;BMP280;34510;51.888;5.670;2023-06-14T13:33:49;101674.69;;;26.52
48362;BMP280;34510;51.888;5.670;2023-06-14T13:38:58;101676.06;;;26.70
48362;BMP280;34510;51.888;5.670;2023-06-14T13:44:01;101658.28;;;26.94
48362;BMP280;34510;51.888;5.670;2023-06-14T13:49:05;101663.28;;;26.52
48362;BMP280;34510;51.888;5.670;2023-06-14T13:54:07;101679.59;;;25.86
48362;BMP280;34510;51.888;5.670;2023-06-14T13:59:09;101665.34;;;26.37
48362;BMP280;34510;51.888;5.670;2023-06-14T14:04:15;101657.22;;;26.79
48362;BMP280;34510;51.888;5.670;2023-06-14T14:09:27;101652.72;;;26.73
48362;BMP280;34510;51.888;5.670;2023-06-14T14:14:30;101660.78;;;26.41
48362;BMP280;34510;51.888;5.670;2023-06-14T14:19:33;101646.81;;;26.49
48362;BMP280;34510;51.888;5.670;2023-06-14T14:24:36;101662.47;;;26.42
48362;BMP280;34510;51.888;5.670;2023-06-14T14:29:38;101655.84;;;26.72
48362;BMP280;34510;51.888;5.670;2023-06-14T14:34:41;101648.50;;;26.56
48362;BMP280;34510;51.888;5.670;2023-06-14T14:39:44;101651.75;;;25.88
48362;BMP280;34510;51.888;5.670;2023-06-14T14:44:47;101651.75;;;26.08
48362;BMP280;34510;51.888;5.670;2023-06-14T14:49:49;101642.88;;;26.30
48362;BMP280;34510;51.888;5.670;2023-06-14T14:54:51;101654.59;;;25.93
48362;BMP280;34510;51.888;5.670;2023-06-14T14:59:53;101652.31;;;26.05
48362;BMP280;34510;51.888;5.670;2023-06-14T15:04:55;101639.47;;;26.28
48362;BMP280;34510;51.888;5.670;2023-06-14T15:10:05;101652.84;;;26.38
48362;BMP280;34510;51.888;5.670;2023-06-14T15:15:07;101645.78;;;26.05
48362;BMP280;34510;51.888;5.670;2023-06-14T15:20:11;101652.88;;;26.17
48362;BMP280;34510;51.888;5.670;2023-06-14T15:25:15;101655.72;;;26.12
48362;BMP280;34510;51.888;5.670;2023-06-14T15:30:20;101649.41;;;26.41
48362;BMP280;34510;51.888;5.670;2023-06-14T15:35:23;101652.53;;;26.29
48362;BMP280;34510;51.888;5.670;2023-06-14T15:40:25;101655.16;;;26.05
48362;BMP280;34510;51.888;5.670;2023-06-14T15:45:28;101664.84;;;25.74
48362;BMP280;34510;51.888;5.670;2023-06-14T15:50:30;101671.66;;;25.88
48362;BMP280;34510;51.888;5.670;2023-06-14T15:55:47;101662.00;;;25.74
48362;BMP280;34510;51.888;5.670;2023-06-14T16:00:49;101660.28;;;25.93
48362;BMP280;34510;51.888;5.670;2023-06-14T16:05:53;101653.19;;;25.90
48362;BMP280;34510;51.888;5.670;2023-06-14T16:10:55;101648.63;;;25.89
48362;BMP280;34510;51.888;5.670;2023-06-14T16:15:57;101659.44;;;25.72
48362;BMP280;34510;51.888;5.670;2023-06-14T16:20:59;101654.06;;;25.66
48362;BMP280;34510;51.888;5.670;2023-06-14T16:26:02;101646.09;;;25.68
48362;BMP280;34510;51.888;5.670;2023-06-14T16:31:04;101653.75;;;25.52
48362;BMP280;34510;51.888;5.670;2023-06-14T16:36:09;101648.34;;;25.96
48362;BMP280;34510;51.888;5.670;2023-06-14T16:41:13;101642.66;;;25.86
48362;BMP280;34510;51.888;5.670;2023-06-14T16:46:27;101654.31;;;25.59
48362;BMP280;34510;51.888;5.670;2023-06-14T16:51:30;101643.81;;;25.49
48362;BMP280;34510;51.888;5.670;2023-06-14T16:56:48;101656.31;;;25.69
48362;BMP280;34510;51.888;5.670;2023-06-14T17:02:00;101665.88;;;25.17
48362;BMP280;34510;51.888;5.670;2023-06-14T17:07:06;101670.13;;;25.14
48362;BMP280;34510;51.888;5.670;2023-06-14T17:12:08;101669.06;;;25.41
48362;BMP280;34510;51.888;5.670;2023-06-14T17:17:12;101663.09;;;25.47
48362;BMP280;34510;51.888;5.670;2023-06-14T17:22:14;101679.25;;;25.26
48362;BMP280;34510;51.888;5.670;2023-06-14T17:27:16;101674.94;;;25.04
48362;BMP280;34510;51.888;5.670;2023-06-14T17:32:18;101678.28;;;24.90
48362;BMP280;34510;51.888;5.670;2023-06-14T17:37:20;101680.63;;;25.14
48362;BMP280;34510;51.888;5.670;2023-06-14T17:42:22;101693.56;;;24.84
48362;BMP280;34510;51.888;5.670;2023-06-14T17:47:25;101689.84;;;24.74
48362;BMP280;34510;51.888;5.670;2023-06-14T17:52:30;101685.63;;;24.86
48362;BMP280;34510;51.888;5.670;2023-06-14T17:57:33;101689.31;;;24.82
48362;BMP280;34510;51.888;5.670;2023-06-14T18:02:38;101696.38;;;24.79
48362;BMP280;34510;51.888;5.670;2023-06-14T18:07:42;101701.66;;;24.60
48362;BMP280;34510;51.888;5.670;2023-06-14T18:12:48;101704.31;;;24.72
48362;BMP280;34510;51.888;5.670;2023-06-14T18:17:50;101714.34;;;24.48
48362;BMP280;34510;51.888;5.670;2023-06-14T18:22:54;101718.00;;;24.38
48362;BMP280;34510;51.888;5.670;2023-06-14T18:27:56;101719.28;;;24.25
48362;BMP280;34510;51.888;5.670;2023-06-14T18:33:01;101725.78;;;24.21
48362;BMP280;34510;51.888;5.670;2023-06-14T18:38:04;101722.88;;;24.11
48362;BMP280;34510;51.888;5.670;2023-06-14T18:43:11;101726.47;;;24.01
48362;BMP280;34510;51.888;5.670;2023-06-14T18:48:13;101731.47;;;23.89
48362;BMP280;34510;51.888;5.670;2023-06-14T18:53:16;101728.59;;;23.84
48362;BMP280;34510;51.888;5.670;2023-06-14T18:58:18;101727.88;;;23.66
48362;BMP280;34510;51.888;5.670;2023-06-14T19:03:23;101736.72;;;23.48
48362;BMP280;34510;51.888;5.670;2023-06-14T19:08:26;101735.75;;;23.37
48362;BMP280;34510;51.888;5.670;2023-06-14T19:13:28;101739.38;;;23.33
48362;BMP280;34510;51.888;5.670;2023-06-14T19:18:31;101749.03;;;23.10
48362;BMP280;34510;51.888;5.670;2023-06-14T19:23:34;101749.50;;;23.02
48362;BMP280;34510;51.888;5.670;2023-06-14T19:28:37;101755.09;;;22.97
48362;BMP280;34510;51.888;5.670;2023-06-14T19:33:41;101754.88;;;23.03
48362;BMP280;34510;51.888;5.670;2023-06-14T19:38:45;101757.78;;;22.70
48362;BMP280;34510;51.888;5.670;2023-06-14T19:43:50;101769.13;;;22.53
48362;BMP280;34510;51.888;5.670;2023-06-14T19:48:52;101770.97;;;22.42
48362;BMP280;34510;51.888;5.670;2023-06-14T19:53:57;101776.97;;;22.29
48362;BMP280;34510;51.888;5.670;2023-06-14T19:59:01;101778.09;;;22.28
48362;BMP280;34510;51.888;5.670;2023-06-14T20:04:09;101794.22;;;21.99
48362;BMP280;34510;51.888;5.670;2023-06-14T20:09:13;101798.31;;;21.75
48362;BMP280;34510;51.888;5.670;2023-06-14T20:14:18;101802.69;;;21.82
48362;BMP280;34510;51.888;5.670;2023-06-14T20:19:21;101794.75;;;21.51
48362;BMP280;34510;51.888;5.670;2023-06-14T20:24:24;101794.44;;;21.36
48362;BMP280;34510;51.888;5.670;2023-06-14T20:29:26;101803.41;;;21.33
48362;BMP280;34510;51.888;5.670;2023-06-14T20:34:28;101799.88;;;21.26
48362;BMP280;34510;51.888;5.670;2023-06-14T20:39:30;101801.44;;;21.21
48362;BMP280;34510;51.888;5.670;2023-06-14T20:44:34;101796.56;;;21.29
48362;BMP280;34510;51.888;5.670;2023-06-14T20:49:44;101804.81;;;21.07
48362;BMP280;34510;51.888;5.670;2023-06-14T20:54:47;101814.31;;;20.89
48362;BMP280;34510;51.888;5.670;2023-06-14T20:59:50;101821.53;;;20.62
48362;BMP280;34510;51.888;5.670;2023-06-14T21:04:53;101831.34;;;20.59
48362;BMP280;34510;51.888;5.670;2023-06-14T21:09:57;101825.59;;;20.42
48362;BMP280;34510;51.888;5.670;2023-06-14T21:15:00;101832.66;;;20.33
48362;BMP280;34510;51.888;5.670;2023-06-14T21:20:04;101828.13;;;20.32
48362;BMP280;34510;51.888;5.670;2023-06-14T21:25:13;101829.03;;;20.44
48362;BMP280;34510;51.888;5.670;2023-06-14T21:30:16;101838.06;;;20.23
48362;BMP280;34510;51.888;5.670;2023-06-14T21:35:19;101844.53;;;20.23
48362;BMP280;34510;51.888;5.670;2023-06-14T21:40:22;101836.03;;;20.12
48362;BMP280;34510;51.888;5.670;2023-06-14T21:45:30;101844.75;;;20.10
48362;BMP280;34510;51.888;5.670;2023-06-14T21:50:33;101843.00;;;19.98
48362;BMP280;34510;51.888;5.670;2023-06-14T21:55:35;101846.94;;;20.08
48362;BMP280;34510;51.888;5.670;2023-06-14T22:00:37;101848.53;;;20.04
48362;BMP280;34510;51.888;5.670;2023-06-14T22:05:42;101850.97;;;20.01
48362;BMP280;34510;51.888;5.670;2023-06-14T22:10:44;101852.69;;;20.02
48362;BMP280;34510;51.888;5.670;2023-06-14T22:15:46;101857.44;;;19.89
48362;BMP280;34510;51.888;5.670;2023-06-14T22:20:51;101858.97;;;19.74
48362;BMP280;34510;51.888;5.670;2023-06-14T22:25:55;101857.53;;;19.53
48362;BMP280;34510;51.888;5.670;2023-06-14T22:30:57;101866.88;;;19.65
48362;BMP280;34510;51.888;5.670;2023-06-14T22:35:59;101868.19;;;19.44
48362;BMP280;34510;51.888;5.670;2023-06-14T22:41:03;101857.69;;;19.58
48362;BMP280;34510;51.888;5.670;2023-06-14T22:46:18;101857.69;;;19.58
48362;BMP280;34510;51.888;5.670;2023-06-14T22:51:25;101859.72;;;19.51
48362;BMP280;34510;51.888;5.670;2023-06-14T22:56:30;101861.88;;;19.49
48362;BMP280;34510;51.888;5.670;2023-06-14T23:01:39;101861.75;;;19.62
48362;BMP280;34510;51.888;5.670;2023-06-14T23:06:47;101856.88;;;19.51
48362;BMP280;34510;51.888;5.670;2023-06-14T23:11:49;101856.66;;;19.34
48362;BMP280;34510;51.888;5.670;2023-06-14T23:16:51;101858.63;;;19.15
48362;BMP280;34510;51.888;5.670;2023-06-14T23:21:55;101855.88;;;19.27
48362;BMP280;34510;51.888;5.670;2023-06-14T23:27:00;101855.44;;;19.12
48362;BMP280;34510;51.888;5.670;2023-06-14T23:32:03;101869.03;;;19.15
48362;BMP280;34510;51.888;5.670;2023-06-14T23:37:06;101863.78;;;19.18
48362;BMP280;34510;51.888;5.670;2023-06-14T23:42:08;101858.41;;;18.98
48362;BMP280;34510;51.888;5.670;2023-06-14T23:47:20;101862.88;;;19.06
48362;BMP280;34510;51.888;5.670;2023-06-14T23:52:22;101863.72;;;19.07
48362;BMP280;34510;51.888;5.670;2023-06-14T23:57:38;101870.78;;;18.73
